Sponsor www.jackysshop.nl


METAR rapporten vliegvelden

   
EBAW - Antwerp
Gewijzigd: 18-02-2019 09:50
Helder  
Helder  
   Wind: varieert 3.7 km/h
Wind: varieert 3.7 km/h
Temperatuur: 8°C
Dauwpunt: 1°C
Vochtigheid: 62%
Barometer: 1018 hPa
Zicht: meer dan 10 km
Bewolking: Helder
EBAW 180850Z VRB02KT CAVOK 08/01 Q1018 NOSIG
EBLG - Li├Ęge
Gewijzigd: 18-02-2019 09:50
Helder  
Helder  
   Wind: Zuiden 13 km/h
Wind: Zuiden 13 km/h
Temperatuur: 9°C
Voelt als: 7°C
Dauwpunt: -1°C
Vochtigheid: 50%
Barometer: 1019 hPa
Zicht: meer dan 10 km
Bewolking: Helder
EBLG 180850Z 18007KT CAVOK 09/M01 Q1019 NOSIG
EBCV - Mons/Bergen
Gewijzigd: 18-02-2019 09:55
Helder  
Helder  
   Wind: ZZO 7.4 km/h
Wind: ZZO 7.4 km/h
Temperatuur: 7°C
Voelt als: 6°C
Dauwpunt: 2°C
Vochtigheid: 71%
Barometer: 1018 hPa
Bewolking: Helder
Zicht: meer dan 10 km
Bewolking: Helder
EBCV 180855Z AUTO 16004KT 9999 NCD 07/02 Q1018 BLU
EHBK - Maastricht
Gewijzigd: 18-02-2019 09:55
Helder  
Helder  
   Wind: ZZW 13 km/h
Wind: ZZW 13 km/h
Temperatuur: 8°C
Voelt als: 6°C
Dauwpunt: 0°C
Vochtigheid: 57%
Barometer: 1018 hPa
Bewolking: Helder
Zicht: meer dan 10 km
Bewolking: Helder
EHBK 180855Z AUTO 20007KT 9999 NCD 08/00 Q1018 NOSIG
ELLX - Luxemburg
Gewijzigd: 18-02-2019 09:50
Helder  
Helder  
   Wind: ZZO 11.1 km/h
Wind: ZZO 11.1 km/h
Temperatuur: 6°C
Voelt als: 4°C
Dauwpunt: 0°C
Vochtigheid: 66%
Barometer: 1020 hPa
Zicht: meer dan 10 km
Bewolking: Helder
ELLX 180850Z 16006KT CAVOK 06/00 Q1020 NOSIG
EBOS - Oostende
Gewijzigd: 18-02-2019 09:50
Helder  
Helder  
   Wind: Zuiden 5.6 km/h
Wind: Zuiden 5.6 km/h
Temperatuur: 6°C
Voelt als: 5°C
Dauwpunt: 2°C
Vochtigheid: 76%
Barometer: 1018 hPa
Zicht: meer dan 10 km
Bewolking: Helder
EBOS 180850Z 17003KT CAVOK 06/02 Q1018 NOSIG

Script ontwikkeld door  Saratoga-weather.org Aangepast voor de template door  Weerstation Leuven